Time;durP1;ratioP1;P1;durP2;ratioP2;P2;SDS_P1;SDS_P2;PMS_P1;PMS_P2;Temp;Humidity;BMP_temperature;BMP_pressure;BME280_temperature;BME280_humidity;BME280_pressure;Samples;Min_cycle;Max_cycle;Signal;HPM_P1;HPM_P2
2022/05/14 00:01:18;;;;;;;3.00;1.40;;;10.00;18.00;;;;;;5063181;28;36736;-76
2022/05/14 00:03:45;;;;;;;1.70;1.05;;;9.90;18.20;;;;;;5064135;28;34395;-76
2022/05/14 00:06:17;;;;;;;3.38;1.10;;;9.90;18.20;;;;;;5046108;28;34425;-77
2022/05/14 00:08:44;;;;;;;1.77;1.25;;;9.90;18.70;;;;;;5047263;28;34440;-77
2022/05/14 00:13:52;;;;;;;3.85;1.40;;;9.70;18.50;;;;;;5062243;28;34154;-76
2022/05/14 00:16:20;;;;;;;1.42;1.33;;;9.80;18.50;;;;;;5062198;28;34332;-77
2022/05/14 00:18:46;;;;;;;1.30;1.17;;;9.70;18.80;;;;;;5062649;28;34396;-77
2022/05/14 00:21:13;;;;;;;1.77;1.20;;;9.70;18.70;;;;;;5062941;28;36272;-76
2022/05/14 00:23:39;;;;;;;1.95;1.17;;;9.60;18.80;;;;;;5064302;28;34200;-77
2022/05/14 00:26:06;;;;;;;3.00;1.30;;;9.60;18.90;;;;;;5079040;28;34107;-77
2022/05/14 00:28:33;;;;;;;1.70;1.30;;;9.50;18.90;;;;;;5064245;28;34236;-76
2022/05/14 00:30:59;;;;;;;1.00;0.90;;;9.50;19.10;;;;;;5066366;28;34923;-77
2022/05/14 00:33:25;;;;;;;2.00;1.33;;;9.40;19.00;;;;;;5067086;28;34160;-77
2022/05/14 00:35:51;;;;;;;1.42;1.30;;;9.40;19.10;;;;;;5065536;28;34016;-76
2022/05/14 00:38:17;;;;;;;1.70;1.20;;;9.40;19.20;;;;;;5048277;28;34553;-76
2022/05/14 00:40:54;;;;;;;2.08;1.58;;;9.30;19.40;;;;;;5065574;28;34292;-76
2022/05/14 00:43:21;;;;;;;1.42;1.33;;;9.20;19.80;;;;;;5065930;28;34193;-76
2022/05/14 00:45:54;;;;;;;2.97;1.55;;;9.20;19.40;;;;;;5065401;28;34201;-76
2022/05/14 00:48:21;;;;;;;1.10;1.00;;;9.20;20.50;;;;;;5065893;28;34428;-76
2022/05/14 00:50:51;;;;;;;1.20;1.10;;;9.20;19.60;;;;;;5065464;28;36192;-77
2022/05/14 00:53:23;;;;;;;2.22;1.40;;;9.10;19.90;;;;;;5065190;28;34060;-76
2022/05/14 00:55:52;;;;;;;1.50;1.23;;;9.10;20.30;;;;;;5066736;28;34104;-76
2022/05/14 00:58:39;;;;;;;1.92;1.30;;;9.10;19.90;;;;;;5066798;28;33986;-76
2022/05/14 01:01:05;;;;;;;1.92;1.50;;;9.00;23.30;;;;;;5064754;28;36064;-76
2022/05/14 01:03:31;;;;;;;2.38;1.33;;;9.00;20.00;;;;;;5066350;28;34106;-76
2022/05/14 01:05:59;;;;;;;1.33;1.13;;;9.00;20.00;;;;;;5048036;28;34201;-76
2022/05/14 01:08:26;;;;;;;2.28;1.40;;;8.90;20.00;;;;;;5065507;28;34391;-76
2022/05/14 01:10:53;;;;;;;1.45;1.35;;;9.00;20.00;;;;;;5064673;28;35769;-76
2022/05/14 01:13:19;;;;;;;1.23;1.13;;;8.90;20.00;;;;;;5048413;28;34459;-76
2022/05/14 01:15:57;;;;;;;4.38;1.30;;;8.90;20.00;;;;;;5065580;28;34279;-76
2022/05/14 01:18:26;;;;;;;1.55;1.20;;;8.80;21.70;;;;;;5049682;28;34088;-77
2022/05/14 01:21:22;;;;;;;3.15;1.40;;;8.80;20.40;;;;;;5064616;28;35731;-76
2022/05/14 01:26:46;;;;;;;1.42;1.33;;;8.70;21.60;;;;;;5065975;28;34099;-77
2022/05/14 01:29:19;;;;;;;1.30;1.20;;;8.60;20.10;;;;;;5064834;28;34469;-76
2022/05/14 01:31:46;;;;;;;2.28;1.30;;;8.60;20.70;;;;;;5048266;28;35907;-76
2022/05/14 01:34:19;;;;;;;1.67;1.40;;;8.60;20.20;;;;;;5064670;28;34197;-76
2022/05/14 01:36:46;;;;;;;2.42;1.20;;;8.50;21.20;;;;;;5048187;28;34391;-76
2022/05/14 01:39:12;;;;;;;2.03;1.38;;;8.50;20.40;;;;;;5064267;28;33857;-76
2022/05/14 01:41:38;;;;;;;1.73;1.38;;;8.40;20.50;;;;;;5047329;28;35488;-76
2022/05/14 01:44:04;;;;;;;1.95;1.42;;;8.40;20.70;;;;;;5064453;28;34227;-77
2022/05/14 01:46:30;;;;;;;1.50;1.40;;;8.40;20.60;;;;;;5047625;28;34090;-77
2022/05/14 01:48:56;;;;;;;2.00;1.48;;;8.30;20.70;;;;;;5065641;28;34085;-77
2022/05/14 01:51:22;;;;;;;3.22;1.50;;;8.30;20.90;;;;;;5064059;28;35649;-76
2022/05/14 01:53:49;;;;;;;1.38;1.27;;;8.30;20.90;;;;;;5047391;28;34136;-76
2022/05/14 01:56:15;;;;;;;1.05;1.02;;;8.30;21.20;;;;;;5080576;28;34163;-76
2022/05/14 01:58:41;;;;;;;1.50;1.40;;;8.20;21.10;;;;;;5064298;28;34346;-76
2022/05/14 02:01:24;;;;;;;1.50;1.35;;;8.20;21.40;;;;;;5046711;28;36246;-76
2022/05/14 02:03:55;;;;;;;3.90;1.38;;;8.20;21.60;;;;;;5064468;28;34233;-76
2022/05/14 02:06:22;;;;;;;3.20;1.40;;;8.10;21.90;;;;;;5047516;28;34138;-76
2022/05/14 02:08:48;;;;;;;3.40;1.30;;;8.10;21.60;;;;;;5047499;28;34528;-76
2022/05/14 02:11:15;;;;;;;2.15;1.52;;;8.00;21.50;;;;;;5063330;28;35860;-76
2022/05/14 02:13:42;;;;;;;1.95;1.33;;;8.00;21.40;;;;;;5064458;28;34172;-76
2022/05/14 02:16:09;;;;;;;1.45;1.33;;;8.00;21.50;;;;;;5046903;28;34280;-76
2022/05/14 02:18:35;;;;;;;9.52;1.60;;;7.90;21.60;;;;;;5063516;28;34390;-76
2022/05/14 02:21:03;;;;;;;1.13;1.02;;;7.90;21.80;;;;;;5064036;28;34381;-76
2022/05/14 02:23:28;;;;;;;3.60;1.20;;;7.90;22.00;;;;;;5047158;28;34105;-76
2022/05/14 02:25:54;;;;;;;3.92;1.45;;;7.80;21.90;;;;;;5063284;28;34150;-76
2022/05/14 02:28:21;;;;;;;1.42;1.33;;;7.80;21.90;;;;;;5063693;28;34127;-76
2022/05/14 02:30:47;;;;;;;2.60;1.40;;;7.80;22.00;;;;;;5063035;28;35531;-76
2022/05/14 02:33:13;;;;;;;1.65;1.40;;;7.80;22.20;;;;;;5064687;28;34371;-76
2022/05/14 02:35:40;;;;;;;2.28;1.40;;;7.70;22.40;;;;;;5063222;28;34253;-76
2022/05/14 02:38:07;;;;;;;1.38;1.27;;;7.70;22.70;;;;;;5063269;28;34014;-76
2022/05/14 02:40:34;;;;;;;2.50;1.25;;;7.70;22.60;;;;;;5046677;28;35679;-76
2022/05/14 02:43:00;;;;;;;3.97;1.30;;;7.70;22.60;;;;;;5063127;28;34273;-76
2022/05/14 02:45:26;;;;;;;2.20;1.40;;;7.70;22.70;;;;;;5064436;28;34236;-76
2022/05/14 02:47:52;;;;;;;1.75;1.38;;;7.60;22.70;;;;;;5062989;28;34089;-76
2022/05/14 02:50:18;;;;;;;4.65;1.50;;;7.60;22.80;;;;;;5063455;28;36527;-76
2022/05/14 02:52:44;;;;;;;3.42;1.40;;;7.60;22.90;;;;;;5045879;28;34449;-76
2022/05/14 02:55:11;;;;;;;4.15;1.33;;;7.60;23.00;;;;;;5046428;28;34445;-76
2022/05/14 02:57:37;;;;;;;1.58;1.48;;;7.50;23.00;;;;;;5063184;28;34309;-75
2022/05/14 03:00:05;;;;;;;1.30;1.20;;;7.50;22.80;;;;;;5062861;28;36038;-76
2022/05/14 03:02:31;;;;;;;1.20;1.15;;;7.50;23.00;;;;;;5063407;28;34376;-76
2022/05/14 03:04:57;;;;;;;1.70;1.60;;;7.40;22.80;;;;;;5045922;28;34218;-75
2022/05/14 03:07:23;;;;;;;1.33;1.20;;;7.40;22.70;;;;;;5063735;28;34392;-76
2022/05/14 03:09:49;;;;;;;1.70;1.50;;;7.40;22.80;;;;;;5063409;28;34254;-76
2022/05/14 03:12:16;;;;;;;1.70;1.15;;;7.40;22.80;;;;;;5046036;28;34108;-76
2022/05/14 03:14:42;;;;;;;1.45;1.35;;;7.40;22.90;;;;;;5063072;28;34176;-76
2022/05/14 03:17:08;;;;;;;2.22;1.55;;;7.30;22.90;;;;;;5064150;28;34009;-76
2022/05/14 03:19:34;;;;;;;1.38;1.27;;;7.20;23.00;;;;;;5062820;28;34162;-76
2022/05/14 03:22:01;;;;;;;4.57;1.42;;;7.20;23.00;;;;;;5064004;28;34250;-75
2022/05/14 03:24:27;;;;;;;1.75;1.50;;;7.20;23.00;;;;;;5063953;28;34129;-76
2022/05/14 03:26:53;;;;;;;2.05;1.38;;;7.20;23.00;;;;;;5046457;28;34330;-75
2022/05/14 03:29:19;;;;;;;1.52;1.42;;;7.20;23.10;;;;;;5064067;28;35126;-76
2022/05/14 03:31:47;;;;;;;1.23;1.13;;;7.10;23.20;;;;;;5046181;28;34090;-76
2022/05/14 03:34:13;;;;;;;1.77;1.38;;;7.10;23.10;;;;;;5062199;28;34342;-76
2022/05/14 03:36:40;;;;;;;2.70;1.50;;;7.00;23.10;;;;;;5063318;28;34251;-76
2022/05/14 03:39:06;;;;;;;1.30;1.13;;;7.00;23.30;;;;;;5063288;28;34307;-76
2022/05/14 03:41:33;;;;;;;2.45;1.30;;;7.00;23.30;;;;;;5063645;28;34155;-76
2022/05/14 03:43:59;;;;;;;1.33;1.23;;;7.00;23.40;;;;;;5045870;28;34128;-76
2022/05/14 03:46:25;;;;;;;1.52;1.42;;;6.90;23.50;;;;;;5045412;28;34453;-75
2022/05/14 03:48:51;;;;;;;2.03;1.20;;;6.90;23.40;;;;;;5061825;28;36411;-76
2022/05/14 03:51:17;;;;;;;3.67;1.50;;;6.80;23.50;;;;;;5061596;28;34486;-75
2022/05/14 03:53:43;;;;;;;2.13;1.40;;;6.80;23.70;;;;;;5061837;28;34183;-75
2022/05/14 03:56:09;;;;;;;1.38;1.25;;;6.80;23.80;;;;;;5062205;28;34597;-75
2022/05/14 03:58:35;;;;;;;1.63;1.35;;;6.80;23.90;;;;;;5061773;28;36767;-75
2022/05/14 04:01:02;;;;;;;2.00;1.27;;;6.80;23.90;;;;;;5063335;28;34278;-75
2022/05/14 04:03:29;;;;;;;6.95;1.35;;;6.80;24.00;;;;;;5063164;28;34191;-75
2022/05/14 04:05:55;;;;;;;2.95;1.45;;;6.80;23.90;;;;;;5065501;28;34448;-75
2022/05/14 04:08:21;;;;;;;1.50;1.40;;;6.80;24.10;;;;;;5065355;28;35810;-75
2022/05/14 04:10:47;;;;;;;2.30;1.40;;;6.80;24.00;;;;;;5065614;28;34207;-75
2022/05/14 04:13:13;;;;;;;1.50;1.40;;;6.80;23.90;;;;;;5064737;28;34092;-75
2022/05/14 04:15:39;;;;;;;2.67;1.52;;;6.80;24.00;;;;;;5065777;28;34223;-75
2022/05/14 04:18:06;;;;;;;2.28;1.48;;;6.80;24.00;;;;;;5064932;28;35574;-75
2022/05/14 04:20:32;;;;;;;1.95;1.45;;;6.80;24.00;;;;;;5066515;28;34087;-75
2022/05/14 04:22:58;;;;;;;1.60;1.27;;;6.80;24.00;;;;;;5065584;28;34191;-75
2022/05/14 04:25:24;;;;;;;1.63;1.30;;;6.80;24.00;;;;;;5049176;28;34143;-75
2022/05/14 04:27:50;;;;;;;1.58;1.48;;;6.80;24.10;;;;;;5065734;28;34218;-75
2022/05/14 04:30:17;;;;;;;3.55;1.42;;;6.80;23.90;;;;;;5065236;28;34160;-75
2022/05/14 04:32:43;;;;;;;1.52;1.40;;;6.80;24.10;;;;;;5066122;28;34062;-75
2022/05/14 04:35:12;;;;;;;2.30;1.50;;;6.80;24.20;;;;;;5048633;28;34079;-74
2022/05/14 04:37:38;;;;;;;1.75;1.65;;;6.80;24.30;;;;;;5048658;28;36565;-75
2022/05/14 04:40:06;;;;;;;2.42;1.52;;;6.90;24.30;;;;;;5065355;28;34119;-75
2022/05/14 04:42:32;;;;;;;3.20;1.50;;;6.90;24.40;;;;;;5065412;28;34378;-75
2022/05/14 04:44:58;;;;;;;1.77;1.45;;;6.90;24.40;;;;;;5065409;28;34111;-75
2022/05/14 04:47:24;;;;;;;1.30;1.25;;;7.00;25.00;;;;;;5065158;28;35679;-75
2022/05/14 04:49:50;;;;;;;2.58;1.33;;;7.00;24.40;;;;;;5048200;28;34287;-75
2022/05/14 04:52:17;;;;;;;1.63;1.40;;;7.00;24.30;;;;;;5048159;28;34387;-75
2022/05/14 04:54:43;;;;;;;1.90;1.48;;;7.10;24.30;;;;;;5064778;28;34461;-75
2022/05/14 04:57:09;;;;;;;1.75;1.23;;;7.10;24.40;;;;;;5047783;28;35757;-75
2022/05/14 04:59:36;;;;;;;2.67;1.60;;;7.10;24.40;;;;;;5064898;28;34276;-75
2022/05/14 05:04:44;;;;;;;1.65;1.40;;;7.20;24.30;;;;;;5064651;28;34430;-75
2022/05/14 05:07:10;;;;;;;1.30;1.20;;;7.30;24.50;;;;;;5064183;28;36237;-75
2022/05/14 05:09:36;;;;;;;2.70;1.58;;;7.40;24.40;;;;;;5047655;28;34199;-75
2022/05/14 05:12:02;;;;;;;1.85;1.63;;;7.60;24.20;;;;;;5080559;28;34146;-75
2022/05/14 05:14:28;;;;;;;2.28;1.75;;;8.20;23.70;;;;;;5064029;28;34181;-75
2022/05/14 05:16:54;;;;;;;2.10;1.65;;;9.10;22.80;;;;;;5064738;28;34217;-75
2022/05/14 05:19:20;;;;;;;2.33;1.42;;;9.90;21.10;;;;;;5064330;28;34329;-75
2022/05/14 05:21:46;;;;;;;1.90;1.52;;;10.80;19.80;;;;;;5065268;28;34213;-75
2022/05/14 05:24:12;;;;;;;2.97;1.60;;;11.60;18.70;;;;;;5065356;28;34257;-75
2022/05/14 05:26:38;;;;;;;3.25;1.85;;;12.40;17.60;;;;;;5064369;28;36404;-75
2022/05/14 05:29:05;;;;;;;2.22;1.30;;;13.10;16.90;;;;;;5064292;28;34276;-75
2022/05/14 05:31:34;;;;;;;1.40;1.20;;;13.80;16.00;;;;;;5064273;28;34404;-76
2022/05/14 05:34:01;;;;;;;1.90;1.55;;;14.50;15.40;;;;;;5064277;28;34146;-76
2022/05/14 05:36:27;;;;;;;1.85;1.42;;;15.10;14.60;;;;;;5047040;28;35972;-76
2022/05/14 05:38:52;;;;;;;1.98;1.60;;;15.80;14.00;;;;;;5063919;28;34220;-75
2022/05/14 05:41:19;;;;;;;2.28;1.60;;;16.30;13.50;;;;;;5064075;28;34164;-75
2022/05/14 05:43:46;;;;;;;1.73;1.60;;;16.80;13.00;;;;;;5081139;28;34251;-76
2022/05/14 05:46:12;;;;;;;4.32;1.60;;;17.30;12.60;;;;;;5080194;28;35814;-76
2022/05/14 05:48:41;;;;;;;3.20;1.48;;;17.80;12.20;;;;;;5080432;28;34171;-76
2022/05/14 05:51:08;;;;;;;1.50;1.23;;;18.30;11.60;;;;;;5063854;28;34227;-76
2022/05/14 05:59:00;;;;;;;2.63;1.15;;;19.30;10.60;;;;;;5064787;28;35219;-76
2022/05/14 06:01:26;;;;;;;3.05;1.30;;;19.70;10.10;;;;;;5064099;28;34202;-76
2022/05/14 06:03:52;;;;;;;3.55;1.30;;;20.10;9.60;;;;;;5065135;28;34068;-76
2022/05/14 06:06:19;;;;;;;1.15;1.10;;;20.40;9.10;;;;;;5046960;28;35741;-77
2022/05/14 06:08:47;;;;;;;5.13;1.33;;;20.70;8.70;;;;;;5063819;28;34345;-77
2022/05/14 06:11:14;;;;;;;1.88;1.45;;;21.00;8.30;;;;;;5064023;28;34176;-76
2022/05/14 06:13:42;;;;;;;2.65;1.30;;;21.20;8.00;;;;;;5062489;28;34322;-76
2022/05/14 06:16:09;;;;;;;1.40;1.23;;;21.40;7.80;;;;;;5062423;28;34617;-77
2022/05/14 06:18:37;;;;;;;1.10;1.10;;;21.60;7.50;;;;;;5062642;28;34248;-77
2022/05/14 06:21:05;;;;;;;2.50;1.50;;;21.70;7.30;;;;;;5062976;28;34215;-77
2022/05/14 06:23:32;;;;;;;1.70;1.58;;;21.80;7.00;;;;;;5064159;28;34350;-78
2022/05/14 06:25:58;;;;;;;1.48;1.38;;;21.80;6.70;;;;;;5063976;28;34988;-77
2022/05/14 06:28:24;;;;;;;2.97;1.50;;;21.80;6.70;;;;;;5063255;28;35270;-76
2022/05/14 06:30:50;;;;;;;2.15;1.65;;;21.70;6.70;;;;;;5065082;28;34373;-77
2022/05/14 06:33:17;;;;;;;1.65;1.55;;;21.80;6.70;;;;;;5063685;28;34174;-76
2022/05/14 06:35:44;;;;;;;3.88;1.90;;;21.90;6.70;;;;;;5063419;28;35826;-77
2022/05/14 06:38:11;;;;;;;2.58;1.60;;;21.90;6.50;;;;;;5046996;28;34291;-77
2022/05/14 06:40:38;;;;;;;1.98;1.77;;;22.00;6.60;;;;;;5063241;28;34178;-76
2022/05/14 06:43:05;;;;;;;3.17;1.85;;;21.90;6.30;;;;;;5062339;28;34373;-77
2022/05/14 06:45:31;;;;;;;4.50;2.10;;;21.90;6.60;;;;;;5062435;28;35648;-76
2022/05/14 06:47:58;;;;;;;1.90;1.75;;;22.10;6.60;;;;;;5062730;28;34166;-76
2022/05/14 06:50:26;;;;;;;1.80;1.58;;;22.30;6.40;;;;;;5062447;28;34073;-76
2022/05/14 06:52:56;;;;;;;2.17;1.85;;;22.20;6.10;;;;;;5070717;28;34309;-77
2022/05/14 06:55:24;;;;;;;3.45;1.85;;;22.30;6.30;;;;;;5060950;28;36180;-76
2022/05/14 06:57:51;;;;;;;2.58;1.70;;;22.40;6.40;;;;;;5042827;28;34155;-76
2022/05/14 07:00:18;;;;;;;3.42;1.60;;;22.50;6.30;;;;;;5042887;28;34372;-77
2022/05/14 07:02:45;;;;;;;5.05;1.80;;;22.60;6.20;;;;;;5050667;28;34222;-75
2022/05/14 07:07:53;;;;;;;1.70;1.60;;;22.70;6.10;;;;;;5053549;28;34027;-77
2022/05/14 07:10:19;;;;;;;3.60;1.50;;;22.80;6.40;;;;;;5063421;28;34141;-76
2022/05/14 07:12:45;;;;;;;2.30;1.60;;;22.90;6.50;;;;;;5064089;28;34261;-77
2022/05/14 07:15:12;;;;;;;3.13;1.67;;;23.10;6.40;;;;;;5047815;28;34380;-76
2022/05/14 07:17:39;;;;;;;2.83;1.70;;;23.00;6.40;;;;;;5050923;28;34255;-78
2022/05/14 07:20:06;;;;;;;5.57;1.73;;;23.00;6.30;;;;;;5051937;28;34159;-75
2022/05/14 07:22:32;;;;;;;3.10;1.80;;;22.90;6.50;;;;;;5054448;28;34272;-77
2022/05/14 07:24:58;;;;;;;5.68;1.90;;;23.00;6.90;;;;;;5045864;28;36445;-77
2022/05/14 07:27:24;;;;;;;3.10;1.75;;;23.10;6.80;;;;;;5081538;28;34350;-76
2022/05/14 07:29:51;;;;;;;2.13;1.58;;;23.00;6.60;;;;;;5066477;28;34378;-76
2022/05/14 07:32:19;;;;;;;3.83;1.80;;;23.10;6.70;;;;;;5057968;28;34475;-76
2022/05/14 07:34:45;;;;;;;2.08;1.65;;;23.20;6.40;;;;;;5068377;28;36825;-76
2022/05/14 07:37:19;;;;;;;2.53;1.30;;;23.40;6.70;;;;;;5064285;28;34596;-76
2022/05/14 07:39:59;;;;;;;3.60;1.80;;;23.50;6.00;;;;;;5080055;28;34081;-78
2022/05/14 07:42:36;;;;;;;3.78;2.05;;;23.50;5.50;;;;;;5076918;28;34626;-76
2022/05/14 07:45:09;;;;;;;1.27;1.17;;;23.40;4.50;;;;;;5066103;28;35465;-77
2022/05/14 07:47:35;;;;;;;2.85;1.48;;;23.10;5.70;;;;;;5067145;28;34132;-76
2022/05/14 07:50:03;;;;;;;4.35;1.40;;;23.20;6.70;;;;;;5070731;28;34202;-76
2022/05/14 07:52:30;;;;;;;2.05;1.30;;;23.20;6.00;;;;;;5083024;28;34190;-78
2022/05/14 07:54:56;;;;;;;2.85;1.65;;;23.10;6.50;;;;;;5067922;28;35594;-77
2022/05/14 07:57:22;;;;;;;1.77;1.20;;;23.00;6.60;;;;;;5081165;28;34406;-75
2022/05/14 07:59:48;;;;;;;2.15;1.20;;;22.90;6.80;;;;;;5068747;28;34167;-77
2022/05/14 08:02:28;;;;;;;3.53;1.50;;;23.10;6.70;;;;;;5080688;28;34459;-76
2022/05/14 08:04:54;;;;;;;2.25;1.30;;;23.20;5.20;;;;;;5046032;28;35619;-76
2022/05/14 08:07:21;;;;;;;3.88;1.30;;;23.40;6.90;;;;;;5063213;28;34117;-77
2022/05/14 08:09:47;;;;;;;2.42;1.15;;;23.70;6.80;;;;;;5084502;28;34330;-78
2022/05/14 08:12:12;;;;;;;2.72;1.40;;;24.00;6.50;;;;;;5057946;28;34260;-76
2022/05/14 08:14:39;;;;;;;2.60;1.30;;;23.90;6.30;;;;;;5045623;28;35934;-77
2022/05/14 08:17:11;;;;;;;2.08;1.40;;;24.10;6.30;;;;;;5053252;28;34187;-77
2022/05/14 08:19:38;;;;;;;2.97;1.50;;;24.20;5.60;;;;;;5055260;28;34217;-75
2022/05/14 08:24:46;;;;;;;3.40;1.88;;;24.50;6.10;;;;;;5085619;28;34071;-77
2022/05/14 08:27:12;;;;;;;2.20;1.48;;;24.80;6.00;;;;;;5057007;28;34393;-77
2022/05/14 08:29:39;;;;;;;5.78;2.03;;;25.10;5.70;;;;;;5058914;28;34321;-78
2022/05/14 08:32:06;;;;;;;6.93;2.13;;;25.30;5.20;;;;;;5068722;28;34400;-78
2022/05/14 08:34:32;;;;;;;3.30;1.50;;;25.40;5.00;;;;;;5063504;28;35794;-77
2022/05/14 08:36:58;;;;;;;2.45;1.45;;;25.60;4.70;;;;;;5062142;28;34259;-79
2022/05/14 08:39:25;;;;;;;3.67;1.60;;;25.60;4.10;;;;;;5067670;28;34116;-78
2022/05/14 08:41:53;;;;;;;2.85;1.40;;;25.50;4.40;;;;;;5087625;28;34106;-78
2022/05/14 08:44:26;;;;;;;3.40;1.33;;;25.50;3.10;;;;;;5051957;28;36331;-77
2022/05/14 08:46:55;;;;;;;1.58;1.10;;;25.60;3.70;;;;;;5066128;28;34362;-79
2022/05/14 08:49:30;;;;;;;4.05;1.50;;;25.70;3.20;;;;;;5067789;28;33756;-78
2022/05/14 08:51:57;;;;;;;3.85;1.13;;;25.80;2.90;;;;;;5086510;28;34149;-77
2022/05/14 08:54:23;;;;;;;1.60;0.90;;;26.00;4.00;;;;;;5069658;28;36531;-76
2022/05/14 08:57:12;;;;;;;4.35;1.20;;;26.00;3.70;;;;;;5087741;28;34202;-76
2022/05/14 08:59:54;;;;;;;2.40;1.30;;;26.00;2.20;;;;;;5052664;28;34262;-78
2022/05/14 09:02:25;;;;;;;1.90;1.27;;;25.90;1.60;;;;;;5075651;28;34591;-80
2022/05/14 09:05:01;;;;;;;3.15;1.30;;;25.90;2.60;;;;;;5053494;28;35789;-77
2022/05/14 09:07:27;;;;;;;2.78;1.15;;;25.90;1.00;;;;;;5069213;28;34582;-78
2022/05/14 09:09:56;;;;;;;5.07;1.20;;;25.60;3.20;;;;;;5065662;28;34526;-75
2022/05/14 09:12:34;;;;;;;3.53;1.10;;;25.50;3.30;;;;;;5074071;28;34147;-79
2022/05/14 09:15:06;;;;;;;3.00;0.98;;;25.60;2.00;;;;;;5084845;28;35078;-78
2022/05/14 09:17:32;;;;;;;1.92;1.02;;;25.60;3.10;;;;;;5080117;28;34220;-76
2022/05/14 09:19:59;;;;;;;1.52;1.10;;;25.70;3.30;;;;;;5079740;28;34142;-79
2022/05/14 09:22:31;;;;;;;2.88;1.38;;;25.60;3.10;;;;;;5068965;28;34586;-76
2022/05/14 09:25:13;;;;;;;1.63;1.17;;;25.70;2.60;;;;;;5074809;28;34805;-78
2022/05/14 09:27:55;;;;;;;2.65;1.23;;;25.90;1.50;;;;;;5087406;28;34067;-77
2022/05/14 09:30:34;;;;;;;1.92;1.30;;;26.10;1.00;;;;;;5068288;28;34210;-76
2022/05/14 09:33:02;;;;;;;2.42;1.13;;;26.00;1.00;;;;;;5085966;28;34685;-78
2022/05/14 09:35:32;;;;;;;2.50;0.75;;;26.00;2.40;;;;;;5072065;28;35806;-79
2022/05/14 09:38:18;;;;;;;1.02;0.82;;;26.00;2.40;;;;;;5077554;28;34120;-77
2022/05/14 09:40:46;;;;;;;1.92;1.20;;;26.10;1.00;;;;;;5079429;28;34049;-78
2022/05/14 09:43:33;;;;;;;1.63;0.95;;;26.10;2.60;;;;;;5077481;28;34217;-77
2022/05/14 09:46:02;;;;;;;3.85;1.02;;;26.10;1.00;;;;;;5090520;28;34084;-78
2022/05/14 09:48:47;;;;;;;4.13;1.25;;;26.00;1.80;;;;;;5084517;28;34257;-76
2022/05/14 09:51:27;;;;;;;2.85;1.13;;;26.10;1.00;;;;;;5058293;28;34139;-77
2022/05/14 09:53:54;;;;;;;2.90;0.90;;;26.10;2.30;;;;;;5069136;28;34433;-77
2022/05/14 09:56:49;;;;;;;2.90;1.05;;;26.30;2.30;;;;;;5049699;28;35199;-78
2022/05/14 09:59:45;;;;;;;0.82;0.80;;;26.50;1.00;;;;;;5049015;28;34362;-77
2022/05/14 10:02:30;;;;;;;1.30;0.95;;;26.50;1.00;;;;;;5083686;28;34067;-78
2022/05/14 10:05:17;;;;;;;3.88;1.08;;;26.40;1.00;;;;;;5085962;28;34182;-76
2022/05/14 10:07:50;;;;;;;2.08;0.95;;;26.60;1.60;;;;;;5051611;28;36102;-75
2022/05/14 10:10:37;;;;;;;1.50;0.98;;;26.80;1.40;;;;;;5067867;28;34248;-78
2022/05/14 10:13:32;;;;;;;3.65;1.30;;;27.00;1.00;;;;;;5085542;28;34058;-77
2022/05/14 10:16:07;;;;;;;4.10;1.00;;;27.00;1.00;;;;;;5067343;28;34043;-77
2022/05/14 10:18:54;;;;;;;1.50;0.95;;;27.00;1.00;;;;;;5032007;28;36173;-77
2022/05/14 10:21:38;;;;;;;2.13;1.15;;;27.10;1.00;;;;;;5082219;28;34054;-76
2022/05/14 10:27:36;;;;;;;3.05;1.00;;;27.20;1.00;;;;;;5064682;28;34377;-77
2022/05/14 10:30:21;;;;;;;1.80;1.20;;;27.30;1.00;;;;;;5074632;28;34125;-77
2022/05/14 10:32:59;;;;;;;1.92;1.00;;;27.20;1.00;;;;;;5106646;28;34226;-80
2022/05/14 10:35:31;;;;;;;3.75;1.23;;;27.30;1.00;;;;;;5084840;28;33773;-77
2022/05/14 10:38:06;;;;;;;0.80;0.80;;;27.50;1.00;;;;;;5063327;28;34112;-78
2022/05/14 10:40:37;;;;;;;4.07;1.05;;;27.70;1.00;;;;;;5058255;28;36834;-79
2022/05/14 10:43:35;;;;;;;1.70;0.88;;;27.60;1.00;;;;;;5047127;28;34170;-77
2022/05/14 10:46:07;;;;;;;1.60;0.82;;;27.80;1.00;;;;;;5069881;28;34206;-79
2022/05/14 10:49:01;;;;;;;1.55;1.05;;;28.00;1.00;;;;;;5085657;28;34510;-77
2022/05/14 10:51:31;;;;;;;1.17;0.98;;;28.00;1.00;;;;;;5084169;28;35831;-80
2022/05/14 10:54:00;;;;;;;3.83;1.02;;;28.00;1.00;;;;;;5079466;28;34329;-80
2022/05/14 10:56:33;;;;;;;1.60;0.80;;;28.00;1.00;;;;;;5067884;28;34149;-77
2022/05/14 10:59:05;;;;;;;1.27;0.80;;;28.10;1.00;;;;;;5063039;28;34049;-77
2022/05/14 11:01:46;;;;;;;2.83;1.20;;;28.20;1.00;;;;;;5080886;28;34735;-76
2022/05/14 11:04:28;;;;;;;4.38;0.90;;;28.10;1.00;;;;;;5047962;28;34172;-77
2022/05/14 11:06:58;;;;;;;1.50;0.90;;;28.10;1.00;;;;;;5063699;28;34151;-75
2022/05/14 11:09:38;;;;;;;1.00;0.90;;;28.00;1.00;;;;;;5057553;28;35931;-78
2022/05/14 11:12:26;;;;;;;2.25;1.10;;;28.10;1.00;;;;;;5083660;28;34228;-77
2022/05/14 11:14:55;;;;;;;1.50;0.80;;;27.90;1.00;;;;;;5052020;28;34331;-79
2022/05/14 11:17:29;;;;;;;1.48;0.80;;;28.00;1.00;;;;;;5085121;28;34556;-77
2022/05/14 11:20:15;;;;;;;0.88;0.77;;;28.20;1.00;;;;;;5083681;28;34372;-77
2022/05/14 11:22:45;;;;;;;3.92;1.00;;;28.40;1.00;;;;;;5081707;28;34619;-78
2022/05/14 11:25:23;;;;;;;2.38;0.95;;;28.50;1.00;;;;;;5074160;28;34072;-77
2022/05/14 11:28:07;;;;;;;3.13;0.90;;;28.60;1.00;;;;;;5089520;28;34337;-77
2022/05/14 11:30:55;;;;;;;2.17;0.90;;;28.60;1.00;;;;;;5072400;28;35961;-76
2022/05/14 11:33:31;;;;;;;1.10;0.77;;;28.70;1.00;;;;;;5060652;28;36109;-78
2022/05/14 11:36:01;;;;;;;1.27;0.77;;;28.80;1.00;;;;;;5064304;28;34403;-77
2022/05/14 11:38:36;;;;;;;1.42;0.80;;;28.70;1.00;;;;;;5084330;28;34367;-76
2022/05/14 11:41:04;;;;;;;1.95;0.70;;;28.60;1.00;;;;;;5084810;28;34111;-77
2022/05/14 11:43:34;;;;;;;1.88;0.95;;;28.50;1.00;;;;;;5056704;28;36789;-76
2022/05/14 11:46:21;;;;;;;1.92;0.98;;;28.50;1.00;;;;;;5084895;28;34315;-79
2022/05/14 11:48:54;;;;;;;1.83;0.90;;;28.60;1.00;;;;;;5087779;28;34139;-81
2022/05/14 11:51:50;;;;;;;7.43;1.15;;;28.60;1.00;;;;;;5067439;28;34121;-76
2022/05/14 11:54:25;;;;;;;2.42;0.90;;;28.60;1.00;;;;;;5065061;28;35498;-77
2022/05/14 11:57:08;;;;;;;3.25;0.98;;;28.60;1.00;;;;;;5083324;28;34084;-76
2022/05/14 11:59:48;;;;;;;1.55;1.00;;;28.80;1.00;;;;;;5086375;28;34060;-76
2022/05/14 12:02:45;;;;;;;3.60;1.00;;;28.60;1.00;;;;;;5083707;28;35397;-77
2022/05/14 12:05:23;;;;;;;1.38;0.80;;;28.60;1.00;;;;;;5065526;28;35625;-77
2022/05/14 12:08:09;;;;;;;2.25;0.80;;;28.80;1.00;;;;;;5066934;28;34126;-77
2022/05/14 12:10:58;;;;;;;4.53;1.52;;;29.00;1.00;;;;;;5067738;28;34335;-75
2022/05/14 12:13:52;;;;;;;3.58;1.20;;;29.00;1.00;;;;;;5065417;28;34326;-77
2022/05/14 12:16:30;;;;;;;1.67;0.93;;;29.10;1.00;;;;;;5078869;28;35512;-77
2022/05/14 12:18:56;;;;;;;2.50;0.70;;;29.10;1.00;;;;;;5095310;28;34274;-77
2022/05/14 12:21:23;;;;;;;13.80;2.63;;;29.20;1.00;;;;;;5047835;28;34212;-76
2022/05/14 12:23:49;;;;;;;17.23;3.65;;;29.10;1.00;;;;;;5065788;28;34424;-78
2022/05/14 12:26:23;;;;;;;2.90;1.20;;;29.00;1.00;;;;;;5052413;28;36674;-77
2022/05/14 12:28:51;;;;;;;6.05;1.33;;;29.00;1.00;;;;;;5070061;28;34480;-75
2022/05/14 12:34:07;;;;;;;2.80;0.85;;;28.90;1.00;;;;;;5086731;28;34469;-77
2022/05/14 12:36:40;;;;;;;1.88;0.85;;;29.00;1.00;;;;;;5107992;28;34311;-76
2022/05/14 12:39:12;;;;;;;2.55;0.90;;;29.00;1.00;;;;;;5100693;28;34137;-73
2022/05/14 12:41:41;;;;;;;0.90;0.65;;;29.00;1.00;;;;;;5067811;28;34250;-73
2022/05/14 12:44:12;;;;;;;1.25;0.70;;;29.00;1.00;;;;;;5068262;28;34173;-74
2022/05/14 12:46:42;;;;;;;1.67;1.00;;;28.80;1.00;;;;;;5076836;28;35708;-73
2022/05/14 12:49:18;;;;;;;1.83;0.90;;;28.80;1.00;;;;;;5087925;28;34128;-75
2022/05/14 12:51:51;;;;;;;1.42;0.63;;;28.90;1.00;;;;;;5079576;28;34259;-75
2022/05/14 12:54:22;;;;;;;2.00;1.00;;;28.90;1.00;;;;;;5068489;28;34325;-77
2022/05/14 12:56:50;;;;;;;1.98;0.98;;;28.90;1.00;;;;;;5049493;28;35651;-76
2022/05/14 12:59:16;;;;;;;2.78;0.75;;;28.90;1.00;;;;;;5066963;28;34123;-75
2022/05/14 13:01:42;;;;;;;1.52;0.90;;;28.90;1.00;;;;;;5048771;28;34135;-77
2022/05/14 13:04:09;;;;;;;2.28;0.70;;;28.80;1.00;;;;;;5050346;28;34113;-76
2022/05/14 13:06:40;;;;;;;2.03;0.88;;;28.80;1.00;;;;;;5062299;28;36084;-75
2022/05/14 13:09:09;;;;;;;3.28;0.85;;;28.70;1.00;;;;;;5072966;28;34116;-77
2022/05/14 13:11:43;;;;;;;4.18;0.93;;;28.70;1.00;;;;;;5072334;28;34063;-75
2022/05/14 13:14:16;;;;;;;2.38;0.70;;;28.60;1.00;;;;;;5061236;28;34072;-77
2022/05/14 13:16:53;;;;;;;1.83;0.90;;;28.60;1.00;;;;;;5067656;28;35532;-76
2022/05/14 13:19:31;;;;;;;2.55;1.02;;;28.60;1.00;;;;;;5048297;28;34150;-77
2022/05/14 13:21:57;;;;;;;2.30;0.85;;;28.60;1.00;;;;;;5046868;28;34177;-76
2022/05/14 13:24:31;;;;;;;0.93;0.60;;;28.70;1.00;;;;;;5078356;28;34112;-77
2022/05/14 13:26:59;;;;;;;1.08;0.80;;;28.80;1.00;;;;;;5073444;28;35058;-74
2022/05/14 13:29:31;;;;;;;0.70;0.70;;;28.60;1.00;;;;;;5088057;28;34215;-73
2022/05/14 13:32:25;;;;;;;1.02;0.80;;;28.50;1.00;;;;;;5080204;28;34273;-74
2022/05/14 13:37:50;;;;;;;4.28;1.00;;;28.50;1.00;;;;;;5089580;28;34168;-76
2022/05/14 13:40:30;;;;;;;1.90;0.70;;;28.70;1.00;;;;;;5062187;28;34112;-73